GUM weather

Antonio B. Won Pat International Airport
Hagåtña, Guam International Airport, Guam

Public forecast

Using degrees Celsius for public forecast. Weather courtesy of forecast.io.

METAR (pilot weather report)

Retrieved 2019/03/23 21:54 UTC (22 minutes ago):

PGUM 232154Z 05007KT 10SM CLR 27/24 A2992 RMK AO2 SLP124 T02670239

TAF (pilot weather forecast)

Retrieved 2019/03/23 18:42 UTC (4 hours ago):

TAF PGUM 231736Z 2318/2424 06007KT P6SM VCSH SCT025 SCT050 TEMPO 2318/2322 -SHRA SCT018 BKN030 FM240000 06011G18KT P6SM FEW025 SCT050 FM240800 06009KT P6SM FEW025 SCT050